Delphi, Indiana
Current Conditions -  °F | °C
As of 1:35 PM on Thursday 23 Oct 2014 (Local Time) from KMCX Reporting Station
Haze Haze  
Wind Chill: 56°   Ceiling: Unl
Heat Index: 56°   Visibility: 4mi
Dew Point: 44°   Wind: 3mph
Humidity: 64%   Direction: 180°S
Pressure: 30.2"   Gusts: NA
Location:  40.59°N, 86.68°W
Report Text: KMCX 231735Z AUTO 18003KT 4SM HZ SCT030 13/07 A3020 RMK AO2 T01320065
Loading
Personal Weather Stations






























Interactive Weather Map
Tropical Storm Tracking
New forecast layout! Learn more

10-Day Weather Forecast

Advertisements
Track Severe Weather on mobile